createdAt,value
2023-04-04T00:02:01.204Z,101691.41
2023-04-04T00:04:33.477Z,101696.63
2023-04-04T00:07:03.151Z,101693.13
2023-04-04T00:09:33.154Z,101698.34
2023-04-04T00:12:02.884Z,101690.50
2023-04-04T00:14:32.745Z,101693.13
2023-04-04T00:17:02.429Z,101688.75
2023-04-04T00:19:34.723Z,101689.63
2023-04-04T00:22:04.632Z,101695.63
2023-04-04T00:24:34.709Z,101697.22
2023-04-04T00:27:04.427Z,101687.59
2023-04-04T00:29:34.622Z,101698.03
2023-04-04T00:32:04.766Z,101697.16
2023-04-04T00:34:37.071Z,101702.34
2023-04-04T00:37:07.594Z,101693.66
2023-04-04T00:39:37.489Z,101692.84
2023-04-04T00:42:07.587Z,101689.41
2023-04-04T00:44:38.467Z,101695.50
2023-04-04T00:47:08.328Z,101699.00
2023-04-04T00:49:40.778Z,101693.78
2023-04-04T00:52:10.814Z,101690.38
2023-04-04T00:54:40.657Z,101695.66
2023-04-04T00:57:11.593Z,101694.00
2023-04-04T00:59:41.539Z,101696.56
2023-04-04T01:02:11.606Z,101698.28
2023-04-04T01:04:44.021Z,101691.28
2023-04-04T01:07:14.265Z,101700.00
2023-04-04T01:09:43.939Z,101693.88
2023-04-04T01:12:13.929Z,101688.66
2023-04-04T01:14:43.750Z,101690.28
2023-04-04T01:17:13.791Z,101690.22
2023-04-04T01:19:49.908Z,101689.38
2023-04-04T01:22:23.074Z,101688.56
2023-04-04T01:24:52.985Z,101689.41
2023-04-04T01:27:26.262Z,101683.34
2023-04-04T01:30:00.589Z,101684.16
2023-04-04T01:32:35.822Z,101682.41
2023-04-04T01:35:21.138Z,101676.31
2023-04-04T01:37:58.687Z,101676.28
2023-04-04T01:40:31.997Z,101683.19
2023-04-04T01:43:04.514Z,101678.78
2023-04-04T01:45:36.757Z,101678.69
2023-04-04T01:48:11.758Z,101677.69
2023-04-04T01:50:42.824Z,101677.63
2023-04-04T01:53:13.160Z,101674.03
2023-04-04T01:55:42.861Z,101676.59
2023-04-04T01:58:15.136Z,101675.59
2023-04-04T02:00:44.862Z,101663.38
2023-04-04T02:03:14.550Z,101660.81
2023-04-04T02:05:44.521Z,101674.84
2023-04-04T02:08:15.397Z,101671.38
2023-04-04T02:10:52.947Z,101669.56
2023-04-04T02:13:25.224Z,101672.06
2023-04-04T02:15:55.552Z,101667.66
2023-04-04T02:18:26.106Z,101663.31
2023-04-04T02:20:59.195Z,101671.09
2023-04-04T02:23:28.843Z,101670.13
2023-04-04T02:25:58.498Z,101666.63
2023-04-04T02:28:31.603Z,101666.69
2023-04-04T02:31:04.107Z,101669.31
2023-04-04T02:33:34.426Z,101660.63
2023-04-04T02:36:07.621Z,101659.75
2023-04-04T02:38:37.390Z,101664.91
2023-04-04T02:41:08.708Z,101652.69
2023-04-04T02:43:41.776Z,101654.28
2023-04-04T02:46:21.277Z,101653.38
2023-04-04T02:48:53.887Z,101649.91
2023-04-04T02:51:24.087Z,101650.81
2023-04-04T02:53:53.881Z,101645.66
2023-04-04T02:56:29.438Z,101649.09
2023-04-04T02:59:02.248Z,101650.03
2023-04-04T03:01:32.546Z,101654.38
2023-04-04T03:04:06.097Z,101646.69
2023-04-04T03:06:37.774Z,101655.41
2023-04-04T03:09:07.567Z,101651.09
2023-04-04T03:11:37.953Z,101645.97
2023-04-04T03:14:10.306Z,101652.94
2023-04-04T03:16:42.433Z,101646.06
2023-04-04T03:19:12.189Z,101643.50
2023-04-04T03:21:41.861Z,101657.34
2023-04-04T03:24:11.529Z,101650.44
2023-04-04T03:26:41.239Z,101650.41
2023-04-04T03:29:16.558Z,101640.75
2023-04-04T03:31:46.748Z,101645.88
2023-04-04T03:34:17.148Z,101644.97
2023-04-04T03:36:46.952Z,101642.34
2023-04-04T03:39:17.187Z,101644.13
2023-04-04T03:41:47.100Z,101649.31
2023-04-04T03:44:19.468Z,101640.63
2023-04-04T03:46:49.138Z,101648.38
2023-04-04T03:49:19.119Z,101642.28
2023-04-04T03:51:48.812Z,101641.38
2023-04-04T03:54:19.140Z,101639.69
2023-04-04T03:56:48.974Z,101634.53
2023-04-04T03:59:21.726Z,101631.16
2023-04-04T04:01:51.799Z,101629.72
2023-04-04T04:04:21.548Z,101622.19
2023-04-04T04:06:51.447Z,101623.25
2023-04-04T04:09:21.502Z,101630.28
2023-04-04T04:11:51.157Z,101630.28
2023-04-04T04:14:23.359Z,101630.25
2023-04-04T04:16:53.114Z,101626.66
2023-04-04T04:19:24.977Z,101624.03
2023-04-04T04:21:54.704Z,101622.25
2023-04-04T04:24:24.436Z,101617.06
2023-04-04T04:26:54.111Z,101620.53
2023-04-04T04:29:26.431Z,101621.34
2023-04-04T04:31:56.213Z,101623.91
2023-04-04T04:34:29.220Z,101621.28
2023-04-04T04:37:02.181Z,101616.06
2023-04-04T04:39:42.496Z,101622.97
2023-04-04T04:42:26.186Z,101612.50
2023-04-04T04:45:02.407Z,101613.31
2023-04-04T04:47:35.533Z,101615.88
2023-04-04T04:50:09.059Z,101621.91
2023-04-04T04:52:43.671Z,101632.19
2023-04-04T04:55:14.183Z,101622.69
2023-04-04T04:57:49.931Z,101618.38
2023-04-04T05:00:27.531Z,101615.00
2023-04-04T05:02:57.866Z,101625.47
2023-04-04T05:05:38.406Z,101620.25
2023-04-04T05:08:12.749Z,101623.78
2023-04-04T05:10:55.126Z,101616.81
2023-04-04T05:13:28.293Z,101622.91
2023-04-04T05:16:01.016Z,101626.44
2023-04-04T05:18:31.266Z,101624.66
2023-04-04T05:21:01.290Z,101618.59
2023-04-04T05:23:32.305Z,101624.66
2023-04-04T05:26:03.144Z,101628.19
2023-04-04T05:28:36.526Z,101624.81
2023-04-04T05:31:11.469Z,101632.78
2023-04-04T05:33:41.179Z,101637.28
2023-04-04T05:36:16.273Z,101634.75
2023-04-04T05:38:54.858Z,101641.06
2023-04-04T05:41:27.722Z,101649.88
2023-04-04T05:44:03.198Z,101637.00
2023-04-04T05:46:36.113Z,101636.38
2023-04-04T05:49:06.715Z,101640.97
2023-04-04T05:51:38.624Z,101635.09
2023-04-04T05:54:14.227Z,101636.16
2023-04-04T05:56:45.091Z,101634.59
2023-04-04T05:59:22.507Z,101635.56
2023-04-04T06:02:07.922Z,101643.44
2023-04-04T06:04:41.208Z,101638.28
2023-04-04T06:07:13.013Z,101654.81
2023-04-04T06:09:42.715Z,101654.03
2023-04-04T06:12:12.510Z,101657.63
2023-04-04T06:14:43.018Z,101657.75
2023-04-04T06:17:15.836Z,101659.66
2023-04-04T06:19:45.675Z,101665.25
2023-04-04T06:22:16.214Z,101667.34
2023-04-04T06:24:49.883Z,101677.34
2023-04-04T06:27:20.146Z,101669.94
2023-04-04T06:29:50.677Z,101669.41
2023-04-04T06:32:25.951Z,101664.50
2023-04-04T06:34:56.366Z,101662.19
2023-04-04T06:37:39.892Z,101665.97
2023-04-04T06:40:17.626Z,101669.00
2023-04-04T06:42:52.348Z,101668.34
2023-04-04T06:45:23.828Z,101671.97
2023-04-04T06:47:56.204Z,101672.00
2023-04-04T06:50:26.009Z,101672.06
2023-04-04T06:52:57.533Z,101665.16
2023-04-04T06:55:27.352Z,101673.13
2023-04-04T06:57:57.496Z,101663.72
2023-04-04T07:00:27.225Z,101670.91
2023-04-04T07:03:03.176Z,101673.69
2023-04-04T07:05:32.867Z,101669.25
2023-04-04T07:08:02.538Z,101669.00
2023-04-04T07:10:32.230Z,101662.22
2023-04-04T07:13:01.863Z,101662.78
2023-04-04T07:15:31.525Z,101660.41
2023-04-04T07:18:03.805Z,101651.81
2023-04-04T07:20:33.493Z,101651.56
2023-04-04T07:23:03.123Z,101649.13
2023-04-04T07:25:32.820Z,101646.63
2023-04-04T07:28:11.678Z,101659.84
2023-04-04T07:30:42.066Z,101655.69
2023-04-04T07:33:14.682Z,101648.97
2023-04-04T07:35:44.935Z,101655.84
2023-04-04T07:38:14.695Z,101649.19
2023-04-04T07:40:44.312Z,101650.94
2023-04-04T07:43:13.945Z,101647.06
2023-04-04T07:45:43.690Z,101646.50
2023-04-04T07:48:15.972Z,101649.97
2023-04-04T07:50:45.701Z,101653.84
2023-04-04T07:53:15.342Z,101647.75
2023-04-04T07:55:45.008Z,101651.19
2023-04-04T07:58:14.669Z,101647.16
2023-04-04T08:00:44.336Z,101641.88
2023-04-04T08:03:17.781Z,101646.59
2023-04-04T08:05:47.584Z,101633.84
2023-04-04T08:08:17.215Z,101632.22
2023-04-04T08:10:47.078Z,101622.00
2023-04-04T08:13:16.708Z,101620.94
2023-04-04T08:15:47.274Z,101626.00
2023-04-04T08:18:19.560Z,101627.88
2023-04-04T08:20:49.984Z,101620.53
2023-04-04T08:23:19.753Z,101621.34
2023-04-04T08:25:49.868Z,101617.31
2023-04-04T08:28:19.518Z,101614.53
2023-04-04T08:30:49.189Z,101618.13
2023-04-04T08:33:21.626Z,101614.94
2023-04-04T08:35:51.624Z,101615.19
2023-04-04T08:38:21.341Z,101609.53
2023-04-04T08:40:51.043Z,101608.66
2023-04-04T08:43:21.723Z,101604.69
2023-04-04T08:45:53.556Z,101612.31
2023-04-04T08:48:27.104Z,101606.81
2023-04-04T08:50:59.713Z,101612.31
2023-04-04T08:53:29.585Z,101607.84
2023-04-04T08:55:59.975Z,101614.81
2023-04-04T08:58:29.812Z,101610.63
2023-04-04T09:00:59.695Z,101611.78
2023-04-04T09:03:34.386Z,101617.75
2023-04-04T09:06:04.520Z,101612.56
2023-04-04T09:08:34.452Z,101621.91
2023-04-04T09:11:05.880Z,101608.63
2023-04-04T09:13:37.953Z,101624.34
2023-04-04T09:16:08.852Z,101619.63
2023-04-04T09:18:41.266Z,101622.59
2023-04-04T09:21:14.636Z,101617.69
2023-04-04T09:23:45.806Z,101620.94
2023-04-04T09:26:17.165Z,101621.72
2023-04-04T09:28:46.832Z,101622.31
2023-04-04T09:31:17.449Z,101601.13
2023-04-04T09:33:51.775Z,101618.47
2023-04-04T09:36:21.786Z,101621.06
2023-04-04T09:38:52.301Z,101603.84
2023-04-04T09:41:22.257Z,101596.34
2023-04-04T09:43:52.051Z,101598.78
2023-04-04T09:46:23.501Z,101599.44
2023-04-04T09:48:56.131Z,101600.88
2023-04-04T09:51:25.885Z,101597.22
2023-04-04T09:53:55.955Z,101591.59
2023-04-04T09:56:25.747Z,101594.13
2023-04-04T09:59:03.080Z,101596.13
2023-04-04T10:01:34.053Z,101593.25
2023-04-04T10:04:07.140Z,101595.31
2023-04-04T10:06:39.346Z,101590.25
2023-04-04T10:09:10.895Z,101591.84
2023-04-04T10:11:40.580Z,101591.94
2023-04-04T10:14:12.479Z,101593.41
2023-04-04T10:16:47.989Z,101599.84
2023-04-04T10:19:21.182Z,101597.44
2023-04-04T10:21:50.902Z,101586.34
2023-04-04T10:24:20.581Z,101597.09
2023-04-04T10:26:50.219Z,101602.75
2023-04-04T10:29:20.091Z,101586.72
2023-04-04T10:31:50.094Z,101592.25
2023-04-04T10:34:26.243Z,101592.50
2023-04-04T10:36:57.484Z,101593.38
2023-04-04T10:39:29.340Z,101593.97
2023-04-04T10:41:59.930Z,101590.91
2023-04-04T10:44:33.927Z,101591.25
2023-04-04T10:47:05.428Z,101582.88
2023-04-04T10:49:37.755Z,101569.03
2023-04-04T10:52:07.493Z,101569.06
2023-04-04T10:54:37.272Z,101565.59
2023-04-04T10:57:07.850Z,101563.84
2023-04-04T10:59:37.981Z,101560.38
2023-04-04T11:02:08.282Z,101553.41
2023-04-04T11:04:44.322Z,101548.97
2023-04-04T11:07:19.215Z,101548.13
2023-04-04T11:09:52.678Z,101548.16
2023-04-04T11:12:44.968Z,101541.91
2023-04-04T11:15:16.486Z,101544.47
2023-04-04T11:17:58.661Z,101545.31
2023-04-04T11:20:36.845Z,101535.72
2023-04-04T11:23:12.622Z,101534.88
2023-04-04T11:25:43.869Z,101522.53
2023-04-04T11:28:18.166Z,101533.88
2023-04-04T11:30:49.075Z,101526.97
2023-04-04T11:33:30.771Z,101521.00
2023-04-04T11:36:08.891Z,101531.69
2023-04-04T11:38:39.022Z,101534.34
2023-04-04T11:41:10.616Z,101534.38
2023-04-04T11:43:47.864Z,101519.44
2023-04-04T11:46:20.138Z,101522.84
2023-04-04T11:48:50.628Z,101516.63
2023-04-04T11:51:23.390Z,101521.78
2023-04-04T11:53:53.026Z,101520.06
2023-04-04T11:56:23.940Z,101512.13
2023-04-04T11:59:05.126Z,101516.63
2023-04-04T12:01:40.788Z,101497.38
2023-04-04T12:04:10.508Z,101504.41
2023-04-04T12:06:43.004Z,101496.50
2023-04-04T12:09:17.602Z,101497.28
2023-04-04T12:11:47.926Z,101501.63
2023-04-04T12:14:22.076Z,101495.53
2023-04-04T12:16:52.513Z,101485.94
2023-04-04T12:19:22.991Z,101484.19
2023-04-04T12:21:57.415Z,101487.66
2023-04-04T12:24:27.173Z,101482.38
2023-04-04T12:26:58.538Z,101483.25
2023-04-04T12:29:30.484Z,101472.66
2023-04-04T12:32:00.562Z,101482.25
2023-04-04T12:34:33.067Z,101475.97
2023-04-04T12:37:05.690Z,101467.09
2023-04-04T12:39:35.341Z,101467.88
2023-04-04T12:42:07.713Z,101464.28
2023-04-04T12:44:38.260Z,101449.38
2023-04-04T12:47:09.965Z,101442.28
2023-04-04T12:49:44.386Z,101442.91
2023-04-04T12:52:23.309Z,101433.91
2023-04-04T12:55:06.770Z,101424.94
2023-04-04T12:57:37.513Z,101426.50
2023-04-04T13:00:09.187Z,101414.88
2023-04-04T13:02:40.240Z,101419.06
2023-04-04T13:05:11.375Z,101412.63
2023-04-04T13:07:45.690Z,101409.66
2023-04-04T13:10:18.768Z,101414.72
2023-04-04T13:13:00.159Z,101407.53
2023-04-04T13:15:50.825Z,101416.34
2023-04-04T13:18:22.263Z,101411.31
2023-04-04T13:20:52.327Z,101402.84
2023-04-04T13:23:25.069Z,101402.25
2023-04-04T13:25:54.724Z,101409.59
2023-04-04T13:28:24.414Z,101392.22
2023-04-04T13:30:54.114Z,101402.16
2023-04-04T13:33:23.895Z,101399.66
2023-04-04T13:35:54.230Z,101395.31
2023-04-04T13:38:27.237Z,101399.66
2023-04-04T13:40:57.001Z,101389.09
2023-04-04T13:43:26.787Z,101385.56
2023-04-04T13:45:56.509Z,101370.59
2023-04-04T13:48:26.579Z,101373.09
2023-04-04T13:50:57.596Z,101369.47
2023-04-04T13:53:29.854Z,101366.88
2023-04-04T13:56:16.807Z,101364.25
2023-04-04T13:58:48.242Z,101370.47
2023-04-04T14:01:17.974Z,101373.09
2023-04-04T14:03:47.668Z,101359.19
2023-04-04T14:06:17.590Z,101353.06
2023-04-04T14:08:49.857Z,101352.16
2023-04-04T14:11:19.516Z,101355.59
2023-04-04T14:13:52.104Z,101348.56
2023-04-04T14:16:23.326Z,101338.88
2023-04-04T14:18:53.002Z,101346.69
2023-04-04T14:21:22.633Z,101330.75
2023-04-04T14:23:54.972Z,101337.66
2023-04-04T14:26:24.737Z,101335.75
2023-04-04T14:28:54.701Z,101330.22
2023-04-04T14:31:24.504Z,101324.63
2023-04-04T14:33:54.171Z,101323.56
2023-04-04T14:36:24.625Z,101322.47
2023-04-04T14:38:57.451Z,101325.19
2023-04-04T14:41:27.487Z,101315.59
2023-04-04T14:43:57.361Z,101317.34
2023-04-04T14:46:27.205Z,101308.47
2023-04-04T14:48:56.924Z,101311.97
2023-04-04T14:51:27.338Z,101317.28
2023-04-04T14:53:59.797Z,101308.63
2023-04-04T14:56:30.497Z,101308.88
2023-04-04T14:59:00.253Z,101300.34
2023-04-04T15:01:30.215Z,101303.22
2023-04-04T15:04:00.074Z,101299.84
2023-04-04T15:06:36.109Z,101300.81
2023-04-04T15:09:09.752Z,101296.47
2023-04-04T15:11:39.397Z,101299.19
2023-04-04T15:14:09.121Z,101291.41
2023-04-04T15:16:38.980Z,101294.16
2023-04-04T15:19:10.139Z,101296.94
2023-04-04T15:21:39.810Z,101296.13
2023-04-04T15:24:12.214Z,101300.59
2023-04-04T15:26:41.859Z,101291.03
2023-04-04T15:29:11.534Z,101289.41
2023-04-04T15:31:41.232Z,101291.25
2023-04-04T15:34:11.128Z,101286.09
2023-04-04T15:36:40.866Z,101277.44
2023-04-04T15:39:14.108Z,101280.19
2023-04-04T15:41:43.781Z,101283.75
2023-04-04T15:44:13.531Z,101286.50
2023-04-04T15:46:43.311Z,101297.13
2023-04-04T15:49:12.951Z,101289.34
2023-04-04T15:51:45.064Z,101286.84
2023-04-04T15:54:17.387Z,101284.31
2023-04-04T15:56:47.044Z,101285.28
2023-04-04T15:59:16.789Z,101274.84
2023-04-04T16:01:46.956Z,101288.97
2023-04-04T16:04:17.010Z,101281.09
2023-04-04T16:06:46.681Z,101274.16
2023-04-04T16:09:18.918Z,101276.84
2023-04-04T16:11:48.577Z,101275.97
2023-04-04T16:14:18.269Z,101277.75
2023-04-04T16:16:48.631Z,101277.78
2023-04-04T16:19:18.277Z,101270.88
2023-04-04T16:21:49.394Z,101277.94
2023-04-04T16:24:21.657Z,101270.06
2023-04-04T16:26:51.337Z,101265.78
2023-04-04T16:29:21.787Z,101260.53
2023-04-04T16:31:51.483Z,101265.00
2023-04-04T16:34:21.147Z,101268.56
2023-04-04T16:36:50.888Z,101265.09
2023-04-04T16:39:23.744Z,101265.13
2023-04-04T16:41:53.435Z,101271.34
2023-04-04T16:44:23.096Z,101267.03
2023-04-04T16:46:52.828Z,101267.94
2023-04-04T16:49:22.950Z,101261.84
2023-04-04T16:51:52.594Z,101261.91
2023-04-04T16:54:24.845Z,101259.28
2023-04-04T16:56:54.495Z,101253.22
2023-04-04T16:59:24.195Z,101250.66
2023-04-04T17:01:53.846Z,101252.47
2023-04-04T17:04:23.629Z,101256.00
2023-04-04T17:06:53.372Z,101251.66
2023-04-04T17:09:25.650Z,101245.53
2023-04-04T17:11:55.388Z,101252.59
2023-04-04T17:14:25.046Z,101252.63
2023-04-04T17:16:55.977Z,101250.94
2023-04-04T17:19:25.919Z,101249.22
2023-04-04T17:21:55.695Z,101247.47
2023-04-04T17:24:28.149Z,101251.00
2023-04-04T17:26:59.718Z,101249.31
2023-04-04T17:29:29.398Z,101247.56
2023-04-04T17:31:59.989Z,101248.50
2023-04-04T17:34:29.906Z,101241.41
2023-04-04T17:36:59.629Z,101237.91
2023-04-04T17:39:33.857Z,101240.53
2023-04-04T17:42:03.271Z,101242.31
2023-04-04T17:44:33.070Z,101245.84
2023-04-04T17:47:02.714Z,101242.41
2023-04-04T17:49:32.358Z,101237.16
2023-04-04T17:52:02.162Z,101238.09
2023-04-04T17:54:34.446Z,101240.78
2023-04-04T17:57:07.248Z,101233.84
2023-04-04T17:59:37.110Z,101237.41
2023-04-04T18:02:06.849Z,101232.19
2023-04-04T18:04:36.549Z,101237.50
2023-04-04T18:07:06.323Z,101234.91
2023-04-04T18:09:38.834Z,101238.44
2023-04-04T18:12:08.668Z,101239.38
2023-04-04T18:14:38.389Z,101235.03
2023-04-04T18:17:09.080Z,101238.59
2023-04-04T18:19:39.795Z,101235.13
2023-04-04T18:22:10.382Z,101243.06
2023-04-04T18:24:42.984Z,101239.59
2023-04-04T18:27:12.638Z,101240.50
2023-04-04T18:29:43.029Z,101234.38
2023-04-04T18:32:12.704Z,101237.03
2023-04-04T18:34:42.811Z,101238.81
2023-04-04T18:37:12.682Z,101231.84
2023-04-04T18:39:44.956Z,101232.81
2023-04-04T18:42:14.656Z,101236.31
2023-04-04T18:44:44.465Z,101232.00
2023-04-04T18:47:14.155Z,101227.69
2023-04-04T18:49:44.101Z,101239.09
2023-04-04T18:52:13.775Z,101242.66
2023-04-04T18:54:47.084Z,101235.69
2023-04-04T18:57:16.947Z,101230.47
2023-04-04T18:59:46.586Z,101236.63
2023-04-04T19:02:16.480Z,101239.25
2023-04-04T19:04:46.804Z,101237.56
2023-04-04T19:07:22.093Z,101248.91
2023-04-04T19:09:54.717Z,101248.06
2023-04-04T19:12:24.422Z,101248.97
2023-04-04T19:14:54.103Z,101255.06
2023-04-04T19:17:23.761Z,101256.81
2023-04-04T19:19:53.454Z,101250.69
2023-04-04T19:22:23.264Z,101262.06
2023-04-04T19:24:55.576Z,101259.44
2023-04-04T19:27:25.245Z,101273.41
2023-04-04T19:29:56.539Z,101276.00
2023-04-04T19:32:27.771Z,101273.41
2023-04-04T19:34:57.661Z,101272.50
2023-04-04T19:37:27.497Z,101278.59
2023-04-04T19:39:59.741Z,101272.47
2023-04-04T19:42:30.801Z,101270.75
2023-04-04T19:45:00.620Z,101275.09
2023-04-04T19:47:30.298Z,101262.91
2023-04-04T19:50:00.269Z,101265.53
2023-04-04T19:52:30.000Z,101259.41
2023-04-04T19:55:02.258Z,101263.78
2023-04-04T19:57:31.921Z,101267.25
2023-04-04T20:00:05.116Z,101269.00
2023-04-04T20:02:58.136Z,101268.19
2023-04-04T20:05:57.553Z,101268.16
2023-04-04T20:08:28.062Z,101275.16
2023-04-04T20:11:00.486Z,101270.78
2023-04-04T20:13:30.232Z,101271.63
2023-04-04T20:16:04.950Z,101271.66
2023-04-04T20:18:36.088Z,101274.28
2023-04-04T20:21:13.257Z,101266.41
2023-04-04T20:23:53.746Z,101269.03
2023-04-04T20:26:45.214Z,101269.91
2023-04-04T20:29:16.560Z,101264.69
2023-04-04T20:31:47.524Z,101266.41
2023-04-04T20:34:45.700Z,101264.69
2023-04-04T20:37:20.033Z,101267.28
2023-04-04T20:39:51.198Z,101270.78
2023-04-04T20:42:38.271Z,101265.53
2023-04-04T20:45:36.155Z,101262.06
2023-04-04T20:48:07.710Z,101260.31
2023-04-04T20:50:48.044Z,101262.06
2023-04-04T20:53:22.037Z,101260.31
2023-04-04T20:55:54.084Z,101269.03
2023-04-04T20:58:35.109Z,101270.75
2023-04-04T21:01:04.815Z,101265.53
2023-04-04T21:03:37.184Z,101262.91
2023-04-04T21:06:15.348Z,101253.31
2023-04-04T21:08:46.900Z,101253.31
2023-04-04T21:11:17.204Z,101259.41
2023-04-04T21:13:49.518Z,101263.78
2023-04-04T21:16:19.984Z,101262.03
2023-04-04T21:18:49.794Z,101255.06
2023-04-04T21:21:20.210Z,101254.19
2023-04-04T21:23:54.328Z,101255.91
2023-04-04T21:26:35.559Z,101260.28
2023-04-04T21:29:11.500Z,101270.72
2023-04-04T21:31:43.367Z,101263.75
2023-04-04T21:34:15.318Z,101260.28
2023-04-04T21:36:45.989Z,101252.41
2023-04-04T21:39:17.692Z,101251.53
2023-04-04T21:41:47.724Z,101244.53
2023-04-04T21:44:20.039Z,101244.56
2023-04-04T21:46:49.771Z,101246.28
2023-04-04T21:49:19.479Z,101242.75
2023-04-04T21:51:49.180Z,101246.19
2023-04-04T21:54:18.849Z,101238.34
2023-04-04T21:56:49.326Z,101236.56
2023-04-04T21:59:21.608Z,101239.13
2023-04-04T22:01:52.727Z,101237.38
2023-04-04T22:04:22.917Z,101244.28
2023-04-04T22:06:52.697Z,101236.41
2023-04-04T22:09:25.184Z,101237.25
2023-04-04T22:11:59.007Z,101244.16
2023-04-04T22:14:32.089Z,101243.25
2023-04-04T22:17:03.164Z,101232.78
2023-04-04T22:19:42.929Z,101232.75
2023-04-04T22:22:12.700Z,101226.59
2023-04-04T22:24:42.341Z,101226.59
2023-04-04T22:27:14.866Z,101216.97
2023-04-04T22:29:47.249Z,101215.22
2023-04-04T22:32:16.892Z,101213.44
2023-04-04T22:34:47.373Z,101220.34
2023-04-04T22:37:19.594Z,101215.97
2023-04-04T22:39:49.989Z,101222.06
2023-04-04T22:42:19.731Z,101217.69
2023-04-04T22:44:51.970Z,101215.91
2023-04-04T22:47:21.601Z,101215.88
2023-04-04T22:49:51.304Z,101226.31
2023-04-04T22:52:26.520Z,101215.84
2023-04-04T22:54:56.601Z,101225.38
2023-04-04T22:57:26.328Z,101214.91
2023-04-04T22:59:58.658Z,101214.00
2023-04-04T23:02:28.280Z,101217.47
2023-04-04T23:04:58.813Z,101210.53
2023-04-04T23:07:29.132Z,101209.63
2023-04-04T23:09:58.820Z,101203.56
2023-04-04T23:12:28.686Z,101201.81
2023-04-04T23:15:01.694Z,101199.19
2023-04-04T23:17:32.566Z,101199.19
2023-04-04T23:20:02.981Z,101206.16
2023-04-04T23:22:32.616Z,101201.81
2023-04-04T23:25:02.326Z,101200.06
2023-04-04T23:27:32.017Z,101205.25
2023-04-04T23:30:04.890Z,101207.00
2023-04-04T23:32:34.781Z,101198.28
2023-04-04T23:35:04.568Z,101193.91
2023-04-04T23:37:34.657Z,101191.28
2023-04-04T23:40:04.841Z,101192.13
2023-04-04T23:42:34.516Z,101185.19
2023-04-04T23:45:07.295Z,101182.53
2023-04-04T23:47:37.168Z,101181.66
2023-04-04T23:50:07.920Z,101173.88
2023-04-04T23:52:39.542Z,101174.78
2023-04-04T23:55:10.237Z,101175.72
2023-04-04T23:57:40.682Z,101181.94
